Time;durP1;ratioP1;P1;durP2;ratioP2;P2;SDS_P1;SDS_P2;PMS_P1;PMS_P2;Temp;Humidity;BMP_temperature;BMP_pressure;BME280_temperature;BME280_humidity;BME280_pressure;Samples;Min_cycle;Max_cycle;Signal;HPM_P1;HPM_P2
2021/12/09 00:00:33;;;;;;;0.30;0.30;;;;;;;1.66;85.62;100194.00;5018660;28;20667;-73
2021/12/09 00:03:05;;;;;;;0.40;0.40;;;;;;;1.60;85.54;100189.34;5016293;28;20049;-74
2021/12/09 00:05:31;;;;;;;0.27;0.27;;;;;;;1.56;85.40;100190.88;5019055;28;20407;-73
2021/12/09 00:07:56;;;;;;;0.20;0.20;;;;;;;1.52;85.87;100196.69;5013810;28;20379;-73
2021/12/09 00:10:22;;;;;;;0.20;0.20;;;;;;;1.55;85.79;100194.28;5019124;28;20434;-75
2021/12/09 00:12:47;;;;;;;0.30;0.30;;;;;;;1.57;85.48;100199.53;5017580;28;20030;-73
2021/12/09 00:15:13;;;;;;;0.23;0.23;;;;;;;1.54;85.87;100204.53;5017342;28;20099;-74
2021/12/09 00:17:39;;;;;;;0.30;0.30;;;;;;;1.48;85.90;100202.47;5017893;28;20036;-73
2021/12/09 00:20:06;;;;;;;0.30;0.30;;;;;;;1.45;85.93;100202.31;5018597;28;20034;-73
2021/12/09 00:22:31;;;;;;;0.23;0.23;;;;;;;1.38;86.04;100211.44;5017505;28;20087;-74
2021/12/09 00:24:57;;;;;;;0.20;0.20;;;;;;;1.33;86.20;100211.19;5018496;28;20726;-73
2021/12/09 00:27:22;;;;;;;0.40;0.40;;;;;;;1.32;85.85;100211.94;5018309;28;20376;-73
2021/12/09 00:29:47;;;;;;;0.30;0.30;;;;;;;1.32;86.30;100211.09;5018285;28;20101;-73
2021/12/09 00:32:13;;;;;;;0.20;0.20;;;;;;;1.30;86.25;100205.84;5017623;28;20057;-73
2021/12/09 00:34:42;;;;;;;0.23;0.23;;;;;;;1.30;86.59;100207.53;5018513;28;20108;-74
2021/12/09 00:37:28;;;;;;;0.20;0.20;;;;;;;1.29;86.39;100209.22;5018422;28;20347;-73
2021/12/09 00:39:53;;;;;;;0.30;0.30;;;;;;;1.33;86.45;100206.03;5018511;28;20280;-74
2021/12/09 00:42:21;;;;;;;0.30;0.30;;;;;;;1.34;86.45;100210.38;5017146;28;20029;-73
2021/12/09 00:44:47;;;;;;;0.30;0.30;;;;;;;1.33;86.18;100215.44;5018308;28;20100;-74
2021/12/09 00:47:12;;;;;;;0.40;0.40;;;;;;;1.30;86.07;100210.13;5001086;28;20567;-74
2021/12/09 00:49:38;;;;;;;0.20;0.20;;;;;;;1.36;86.13;100207.84;4998621;28;20027;-74
2021/12/09 00:52:04;;;;;;;0.23;0.23;;;;;;;1.31;86.16;100207.59;4998758;28;20274;-73
2021/12/09 00:54:29;;;;;;;0.30;0.30;;;;;;;1.25;86.16;100212.44;4998560;28;20037;-73
2021/12/09 00:56:55;;;;;;;0.30;0.30;;;;;;;1.26;86.21;100206.47;5010106;28;20076;-73
2021/12/09 00:59:20;;;;;;;0.30;0.30;;;;;;;1.28;86.01;100216.84;5018905;28;20037;-75
2021/12/09 01:01:46;;;;;;;0.30;0.30;;;;;;;1.26;85.95;100214.22;5018132;28;20057;-74
2021/12/09 01:04:12;;;;;;;0.30;0.30;;;;;;;1.21;86.21;100210.47;5017951;28;20030;-74
2021/12/09 01:06:37;;;;;;;0.30;0.30;;;;;;;1.23;86.25;100208.88;5017671;28;20376;-74
2021/12/09 01:09:04;;;;;;;0.30;0.30;;;;;;;1.27;86.19;100205.66;5018148;28;20105;-74
2021/12/09 01:11:29;;;;;;;0.20;0.20;;;;;;;1.27;86.23;100212.50;5017398;28;20053;-74
2021/12/09 01:13:55;;;;;;;0.30;0.30;;;;;;;1.25;86.08;100201.22;5018569;28;20527;-74
2021/12/09 01:16:20;;;;;;;0.37;0.37;;;;;;;1.25;86.35;100198.66;5017787;28;20030;-72
2021/12/09 01:18:46;;;;;;;0.20;0.20;;;;;;;1.26;86.18;100200.41;5016569;28;20029;-72
2021/12/09 01:21:11;;;;;;;0.20;0.20;;;;;;;1.27;86.56;100199.59;5017946;28;20396;-73
2021/12/09 01:23:37;;;;;;;0.40;0.40;;;;;;;1.33;86.33;100207.69;5016911;28;20426;-73
2021/12/09 01:26:04;;;;;;;0.20;0.20;;;;;;;1.31;86.36;100202.44;5017648;28;20336;-73
2021/12/09 01:28:36;;;;;;;0.50;0.50;;;;;;;1.34;86.81;100200.06;5017400;28;20288;-73
2021/12/09 01:31:04;;;;;;;0.23;0.23;;;;;;;1.34;86.27;100209.47;5017735;28;20297;-74
2021/12/09 01:33:31;;;;;;;0.20;0.20;;;;;;;1.35;86.34;100203.50;5016786;28;20296;-73
2021/12/09 01:35:57;;;;;;;0.37;0.37;;;;;;;1.36;86.27;100194.94;5017020;28;20383;-74
2021/12/09 01:38:25;;;;;;;0.30;0.30;;;;;;;1.43;85.66;100199.66;5017729;28;20349;-74
2021/12/09 01:40:51;;;;;;;0.27;0.27;;;;;;;1.37;85.79;100207.06;5017049;28;20021;-75
2021/12/09 01:43:16;;;;;;;0.30;0.30;;;;;;;1.32;85.79;100211.09;5017572;28;20273;-72
2021/12/09 01:45:43;;;;;;;0.30;0.30;;;;;;;1.32;85.95;100204.22;5017173;28;20292;-73
2021/12/09 01:48:08;;;;;;;0.20;0.20;;;;;;;1.34;86.13;100210.38;5017371;28;20156;-73
2021/12/09 01:50:35;;;;;;;0.30;0.30;;;;;;;1.36;86.01;100211.34;5017657;28;20566;-74
2021/12/09 01:53:01;;;;;;;0.30;0.30;;;;;;;1.32;86.00;100214.53;5016844;28;20034;-73
2021/12/09 01:55:27;;;;;;;0.23;0.23;;;;;;;1.31;85.89;100214.47;5017102;28;20520;-73
2021/12/09 01:57:53;;;;;;;0.20;0.20;;;;;;;1.36;86.11;100220.75;5016973;28;20283;-73
2021/12/09 02:00:22;;;;;;;0.30;0.30;;;;;;;1.38;85.78;100216.59;5017401;28;20022;-74
2021/12/09 02:02:47;;;;;;;0.20;0.20;;;;;;;1.35;85.67;100219.88;5016785;28;20544;-74
2021/12/09 02:05:14;;;;;;;0.30;0.30;;;;;;;1.34;85.77;100225.84;5016303;28;20299;-74
2021/12/09 02:07:40;;;;;;;0.20;0.20;;;;;;;1.30;85.88;100217.84;5016826;28;20046;-74
2021/12/09 02:10:08;;;;;;;0.20;0.20;;;;;;;1.24;85.96;100220.97;5017119;28;20702;-75
2021/12/09 02:12:33;;;;;;;0.30;0.30;;;;;;;1.23;85.93;100217.50;5016487;28;20109;-73
2021/12/09 02:15:00;;;;;;;0.23;0.23;;;;;;;1.26;85.78;100218.47;5017287;28;20360;-75
2021/12/09 02:17:30;;;;;;;0.20;0.20;;;;;;;1.23;85.80;100214.94;5017060;28;20380;-73
2021/12/09 02:19:57;;;;;;;0.30;0.30;;;;;;;1.25;85.88;100214.13;5016236;28;20292;-74
2021/12/09 02:22:23;;;;;;;0.20;0.20;;;;;;;1.23;85.93;100209.78;5015658;28;20356;-73
2021/12/09 02:24:48;;;;;;;0.30;0.30;;;;;;;1.21;85.90;100218.22;5016351;28;20329;-75
2021/12/09 02:27:14;;;;;;;0.30;0.30;;;;;;;1.21;85.98;100220.81;5015724;28;20084;-74
2021/12/09 02:29:41;;;;;;;0.30;0.30;;;;;;;1.26;85.67;100218.47;5015545;28;20076;-73
2021/12/09 02:32:07;;;;;;;0.20;0.20;;;;;;;1.23;85.75;100216.59;5015837;28;20034;-74
2021/12/09 02:34:32;;;;;;;0.33;0.33;;;;;;;1.19;85.65;100218.13;5007092;28;20271;-73
2021/12/09 02:36:57;;;;;;;0.50;0.50;;;;;;;1.20;85.70;100217.31;5018981;28;20041;-75
2021/12/09 02:39:23;;;;;;;0.20;0.20;;;;;;;1.17;85.76;100212.00;5020474;28;20018;-74
2021/12/09 02:41:49;;;;;;;0.20;0.20;;;;;;;1.17;86.04;100218.88;5002413;28;20045;-74
2021/12/09 02:44:20;;;;;;;0.30;0.30;;;;;;;1.21;85.75;100221.69;5004255;28;20030;-72
2021/12/09 02:46:48;;;;;;;0.30;0.30;;;;;;;1.20;85.72;100219.91;5014458;28;20678;-74
2021/12/09 02:49:17;;;;;;;0.20;0.20;;;;;;;1.23;85.72;100220.09;5020327;28;20269;-74
2021/12/09 02:51:43;;;;;;;0.47;0.47;;;;;;;1.18;85.40;100218.06;5034020;28;20276;-74
2021/12/09 02:54:11;;;;;;;0.40;0.40;;;;;;;1.11;85.59;100214.22;5010972;28;20301;-75
2021/12/09 02:56:37;;;;;;;1.93;0.83;;;;;;;1.05;86.23;100213.91;5019789;28;20599;-73
2021/12/09 02:59:04;;;;;;;0.30;0.30;;;;;;;1.03;86.26;100218.97;5003100;28;20331;-74
2021/12/09 03:01:33;;;;;;;0.30;0.30;;;;;;;1.03;85.98;100218.97;5020184;28;20280;-72
2021/12/09 03:04:01;;;;;;;0.23;0.23;;;;;;;1.03;86.19;100210.31;5020924;28;20666;-74
2021/12/09 03:06:35;;;;;;;0.30;0.30;;;;;;;1.07;85.67;100212.28;5020008;28;20292;-73
2021/12/09 03:09:05;;;;;;;0.20;0.20;;;;;;;1.14;85.80;100213.50;5020618;28;20528;-72
2021/12/09 03:11:30;;;;;;;0.20;0.20;;;;;;;1.11;85.83;100221.97;5019143;28;20281;-73
2021/12/09 03:13:56;;;;;;;0.30;0.30;;;;;;;1.09;86.01;100210.69;5020274;28;20273;-72
2021/12/09 03:16:22;;;;;;;0.40;0.40;;;;;;;1.09;86.25;100214.16;5019609;28;20069;-73
2021/12/09 03:18:51;;;;;;;0.30;0.30;;;;;;;1.08;85.98;100220.09;5019643;28;20284;-72
2021/12/09 03:21:20;;;;;;;0.30;0.30;;;;;;;1.08;86.28;100222.66;5020083;28;20385;-73
2021/12/09 03:23:46;;;;;;;0.50;0.50;;;;;;;1.08;86.19;100221.81;5019717;28;20284;-73
2021/12/09 03:26:12;;;;;;;0.20;0.20;;;;;;;1.08;86.07;100220.09;5018615;28;20996;-73
2021/12/09 03:28:38;;;;;;;0.20;0.20;;;;;;;1.06;86.00;100218.25;5019098;28;20365;-73
2021/12/09 03:31:03;;;;;;;0.40;0.40;;;;;;;0.99;85.58;100217.00;5019709;28;20292;-72
2021/12/09 03:33:29;;;;;;;0.27;0.27;;;;;;;1.05;86.06;100219.94;5019436;28;20052;-73
2021/12/09 03:36:00;;;;;;;0.30;0.30;;;;;;;1.04;86.20;100215.56;5019670;28;20026;-73
2021/12/09 03:38:25;;;;;;;0.40;0.40;;;;;;;1.07;86.26;100220.03;5019652;28;20060;-72
2021/12/09 03:40:51;;;;;;;0.67;0.67;;;;;;;1.12;85.75;100221.16;5018864;28;20308;-74
2021/12/09 03:43:16;;;;;;;0.30;0.30;;;;;;;1.08;85.89;100233.00;5019362;28;20029;-74
2021/12/09 03:45:42;;;;;;;0.30;0.30;;;;;;;1.06;85.91;100224.28;5019034;28;20431;-73
2021/12/09 03:48:07;;;;;;;0.30;0.30;;;;;;;1.05;85.95;100219.06;5018769;28;20059;-73
2021/12/09 03:50:33;;;;;;;0.40;0.40;;;;;;;1.03;85.98;100224.13;5019400;28;20040;-71
2021/12/09 03:52:58;;;;;;;0.30;0.30;;;;;;;1.11;86.02;100228.84;5019081;28;20476;-73
2021/12/09 03:55:23;;;;;;;0.40;0.40;;;;;;;1.08;85.61;100224.38;5035345;28;20030;-72
2021/12/09 03:57:49;;;;;;;0.27;0.27;;;;;;;1.08;85.95;100229.53;5018674;28;20030;-72
2021/12/09 04:00:15;;;;;;;0.20;0.20;;;;;;;1.07;85.88;100233.78;5018771;28;20030;-73
2021/12/09 04:02:40;;;;;;;0.23;0.23;;;;;;;1.02;86.10;100234.34;5018863;28;20380;-72
2021/12/09 04:05:07;;;;;;;0.40;0.40;;;;;;;1.05;85.94;100235.41;5019275;28;20288;-72
2021/12/09 04:07:32;;;;;;;0.30;0.30;;;;;;;1.01;86.18;100230.00;5019022;28;20097;-73
2021/12/09 04:09:58;;;;;;;0.20;0.20;;;;;;;0.98;86.21;100241.00;5018432;28;20295;-73
2021/12/09 04:12:23;;;;;;;0.20;0.20;;;;;;;0.96;86.25;100233.16;5018872;28;20030;-73
2021/12/09 04:14:49;;;;;;;0.30;0.30;;;;;;;0.95;86.54;100239.13;5018555;28;20032;-72
2021/12/09 04:17:14;;;;;;;0.30;0.30;;;;;;;0.95;86.64;100246.00;5018682;28;20135;-73
2021/12/09 04:19:46;;;;;;;0.30;0.30;;;;;;;0.91;86.47;100239.78;5018593;28;20029;-72
2021/12/09 04:22:13;;;;;;;0.20;0.20;;;;;;;0.96;86.55;100240.03;5018928;28;20041;-73
2021/12/09 04:24:38;;;;;;;0.40;0.40;;;;;;;0.94;86.49;100231.34;5017954;28;20283;-72
2021/12/09 04:27:04;;;;;;;0.30;0.30;;;;;;;1.00;86.13;100233.38;5018490;28;20301;-73
2021/12/09 04:29:29;;;;;;;0.37;0.37;;;;;;;1.00;86.46;100229.09;5018255;28;20400;-71
2021/12/09 04:31:54;;;;;;;0.40;0.40;;;;;;;1.05;86.17;100226.78;5018106;28;20030;-74
2021/12/09 04:34:20;;;;;;;0.20;0.20;;;;;;;1.06;86.28;100226.88;5018865;28;20044;-73
2021/12/09 04:36:46;;;;;;;0.30;0.30;;;;;;;1.02;86.26;100222.34;5018401;28;20018;-72
2021/12/09 04:39:11;;;;;;;0.23;0.23;;;;;;;1.00;86.14;100235.94;5018811;28;20103;-72
2021/12/09 04:41:37;;;;;;;0.20;0.20;;;;;;;1.02;86.34;100242.97;5017994;28;20038;-74
2021/12/09 04:44:04;;;;;;;0.30;0.30;;;;;;;1.02;86.13;100237.81;5017864;28;20060;-73
2021/12/09 04:46:29;;;;;;;0.30;0.30;;;;;;;1.03;86.26;100251.59;5017664;28;20056;-72
2021/12/09 04:48:55;;;;;;;0.10;0.10;;;;;;;1.01;86.39;100256.69;5018104;28;20285;-72
2021/12/09 04:51:20;;;;;;;0.20;0.20;;;;;;;1.04;86.24;100254.25;5018293;28;20081;-73
2021/12/09 04:53:45;;;;;;;0.30;0.30;;;;;;;1.07;85.80;100250.97;5018179;28;20041;-74
2021/12/09 04:56:11;;;;;;;0.30;0.30;;;;;;;1.07;86.02;100258.72;5017789;28;20444;-72
2021/12/09 04:58:36;;;;;;;0.40;0.40;;;;;;;1.11;86.13;100264.94;5016665;28;20396;-74
2021/12/09 05:01:04;;;;;;;0.20;0.20;;;;;;;1.08;86.00;100263.94;5018038;28;20606;-72
2021/12/09 05:03:29;;;;;;;0.20;0.20;;;;;;;1.08;85.85;100263.94;5017676;28;20022;-73
2021/12/09 05:05:55;;;;;;;0.30;0.30;;;;;;;1.08;86.10;100266.50;5017728;28;20285;-71
2021/12/09 05:08:23;;;;;;;0.20;0.20;;;;;;;1.17;85.83;100262.72;5016918;28;20124;-72
2021/12/09 05:13:20;;;;;;;0.37;0.37;;;;;;;1.14;85.81;100263.41;5017860;28;20705;-73
2021/12/09 05:15:46;;;;;;;0.30;0.30;;;;;;;1.12;85.84;100272.75;5017796;28;20280;-73
2021/12/09 05:18:12;;;;;;;0.20;0.20;;;;;;;1.11;85.88;100277.81;5017051;28;20530;-73
2021/12/09 05:20:38;;;;;;;0.40;0.40;;;;;;;1.06;85.96;100273.28;5016934;28;20671;-73
2021/12/09 05:23:03;;;;;;;0.30;0.30;;;;;;;1.08;86.02;100281.13;5017845;28;20279;-72
2021/12/09 05:25:29;;;;;;;0.30;0.30;;;;;;;1.13;86.09;100274.53;5017482;28;20099;-71
2021/12/09 05:27:55;;;;;;;0.30;0.30;;;;;;;1.16;85.96;100268.66;5016479;28;20052;-72
2021/12/09 05:30:24;;;;;;;0.30;0.30;;;;;;;1.13;86.22;100265.91;5017599;28;20033;-72
2021/12/09 05:32:51;;;;;;;0.20;0.20;;;;;;;1.15;86.17;100265.19;5017493;28;20295;-72
2021/12/09 05:35:18;;;;;;;0.40;0.40;;;;;;;1.14;85.95;100275.41;5017131;28;20276;-71
2021/12/09 05:37:44;;;;;;;0.20;0.20;;;;;;;1.18;85.90;100273.09;5017218;28;20292;-72
2021/12/09 05:40:10;;;;;;;0.20;0.20;;;;;;;1.19;85.47;100279.16;5017549;28;20284;-72
2021/12/09 05:42:35;;;;;;;0.20;0.20;;;;;;;1.17;85.85;100271.31;5016672;28;20423;-71
2021/12/09 05:45:01;;;;;;;0.20;0.20;;;;;;;1.16;86.03;100269.56;5017823;28;20277;-71
2021/12/09 05:47:26;;;;;;;0.20;0.20;;;;;;;1.15;85.97;100272.94;5016630;28;20039;-73
2021/12/09 05:49:53;;;;;;;0.50;0.50;;;;;;;1.17;85.95;100273.03;5017188;28;20045;-72
2021/12/09 05:52:18;;;;;;;0.20;0.20;;;;;;;1.15;85.91;100284.94;5017123;28;20029;-72
2021/12/09 05:54:44;;;;;;;0.20;0.20;;;;;;;1.20;85.91;100280.94;5017111;28;21078;-73
2021/12/09 05:57:09;;;;;;;0.30;0.30;;;;;;;1.18;85.70;100291.16;5016857;28;20030;-74
2021/12/09 05:59:40;;;;;;;0.30;0.30;;;;;;;1.15;85.87;100301.31;5016608;28;20029;-73
2021/12/09 06:02:06;;;;;;;0.30;0.30;;;;;;;1.15;86.06;100291.00;5017461;28;20022;-73
2021/12/09 06:04:31;;;;;;;0.20;0.20;;;;;;;1.16;86.05;100289.28;5017080;28;20280;-73
2021/12/09 06:06:56;;;;;;;0.20;0.20;;;;;;;1.12;86.25;100289.91;5016956;28;20030;-72
2021/12/09 06:09:24;;;;;;;0.23;0.23;;;;;;;1.14;86.04;100288.31;5017310;28;20026;-70
2021/12/09 06:11:49;;;;;;;0.40;0.40;;;;;;;1.18;86.32;100291.16;5020338;28;20125;-72
2021/12/09 06:14:15;;;;;;;0.43;0.43;;;;;;;1.24;86.12;100280.28;5021462;28;20343;-73
2021/12/09 06:16:41;;;;;;;0.40;0.40;;;;;;;1.23;86.24;100282.00;5020690;28;20353;-72
2021/12/09 06:19:06;;;;;;;0.27;0.27;;;;;;;1.26;85.95;100286.44;5020560;28;20269;-72
2021/12/09 06:21:32;;;;;;;0.20;0.20;;;;;;;1.28;85.91;100305.47;5019509;28;20042;-74
2021/12/09 06:24:02;;;;;;;0.17;0.17;;;;;;;1.22;85.97;100294.78;5020564;28;20112;-72
2021/12/09 06:26:29;;;;;;;0.20;0.20;;;;;;;1.26;85.80;100301.03;5010618;28;20033;-73
2021/12/09 06:28:54;;;;;;;0.30;0.30;;;;;;;1.21;85.72;100311.09;5019969;28;20354;-73
2021/12/09 06:31:20;;;;;;;0.23;0.23;;;;;;;1.16;86.03;100303.06;5018579;28;20276;-72
2021/12/09 06:33:46;;;;;;;0.20;0.20;;;;;;;1.13;86.09;100297.75;5019086;28;20042;-72
2021/12/09 06:36:11;;;;;;;0.27;0.27;;;;;;;1.11;86.29;100293.31;5019589;28;20025;-72
2021/12/09 06:38:36;;;;;;;0.30;0.30;;;;;;;1.13;86.18;100291.69;5018617;28;20412;-73
2021/12/09 06:41:02;;;;;;;0.30;0.30;;;;;;;1.16;86.16;100289.28;5018983;28;20025;-73
2021/12/09 06:43:28;;;;;;;0.20;0.20;;;;;;;1.12;86.36;100289.91;5019530;28;20080;-73
2021/12/09 06:45:55;;;;;;;0.40;0.40;;;;;;;1.08;86.33;100292.31;5019419;28;20092;-73
2021/12/09 06:48:21;;;;;;;0.30;0.30;;;;;;;1.18;86.35;100292.84;5020089;28;20284;-72
2021/12/09 06:50:46;;;;;;;0.20;0.20;;;;;;;1.13;86.43;100286.53;5020340;28;20277;-72
2021/12/09 06:53:14;;;;;;;0.83;0.83;;;;;;;1.07;86.38;100290.53;5019743;28;20080;-73
2021/12/09 06:55:40;;;;;;;0.40;0.40;;;;;;;1.04;86.49;100294.63;5020363;28;20253;-73
2021/12/09 06:58:06;;;;;;;0.30;0.30;;;;;;;1.08;86.72;100306.91;5019378;28;20344;-74
2021/12/09 07:00:32;;;;;;;0.20;0.20;;;;;;;1.16;86.91;100297.00;5019404;28;20071;-73
2021/12/09 07:02:58;;;;;;;0.20;0.20;;;;;;;1.25;86.55;100301.81;5019519;28;20309;-73
2021/12/09 07:05:25;;;;;;;0.27;0.27;;;;;;;1.26;86.57;100301.94;5019528;28;20304;-73
2021/12/09 07:07:51;;;;;;;0.30;0.30;;;;;;;1.27;86.81;100305.38;5019882;28;20292;-73
2021/12/09 07:10:18;;;;;;;0.10;0.10;;;;;;;1.34;86.79;100308.41;5019861;28;20276;-72
2021/12/09 07:12:44;;;;;;;0.20;0.20;;;;;;;1.41;86.50;100309.63;5015762;28;20372;-72
2021/12/09 07:15:12;;;;;;;0.30;0.30;;;;;;;1.45;86.40;100310.72;5019832;28;20273;-72
2021/12/09 07:17:38;;;;;;;0.20;0.20;;;;;;;1.43;86.22;100309.75;5018997;28;20061;-72
2021/12/09 07:20:05;;;;;;;0.30;0.30;;;;;;;1.43;85.92;100312.31;5018337;28;20463;-72
2021/12/09 07:22:31;;;;;;;0.10;0.10;;;;;;;1.42;86.27;100308.84;5018424;28;20030;-73
2021/12/09 07:24:56;;;;;;;0.20;0.20;;;;;;;1.39;86.59;100305.19;5019756;28;20342;-71
2021/12/09 07:27:21;;;;;;;0.40;0.40;;;;;;;1.39;86.76;100319.00;5018240;28;20038;-72
2021/12/09 07:29:47;;;;;;;0.20;0.20;;;;;;;1.46;86.67;100321.13;5019489;28;20398;-73
2021/12/09 07:32:12;;;;;;;0.20;0.20;;;;;;;1.44;86.75;100317.53;5019584;28;20022;-73
2021/12/09 07:34:37;;;;;;;0.20;0.20;;;;;;;1.50;86.75;100319.59;5019710;28;20073;-73
2021/12/09 07:37:05;;;;;;;0.20;0.20;;;;;;;1.50;86.82;100323.06;5018765;28;20034;-71
2021/12/09 07:39:33;;;;;;;0.20;0.20;;;;;;;1.56;86.90;100313.91;5019340;28;20281;-73
2021/12/09 07:42:00;;;;;;;0.10;0.10;;;;;;;1.57;86.72;100321.75;5019214;28;20271;-73
2021/12/09 07:44:27;;;;;;;0.30;0.30;;;;;;;1.60;86.72;100318.41;5019098;28;20309;-72
2021/12/09 07:46:54;;;;;;;0.30;0.30;;;;;;;1.60;86.92;100327.06;5019501;28;20284;-72
2021/12/09 07:49:19;;;;;;;0.30;0.30;;;;;;;1.67;86.81;100324.81;5019317;28;20519;-72
2021/12/09 07:51:45;;;;;;;0.27;0.27;;;;;;;1.74;86.80;100325.25;5018405;28;20292;-73
2021/12/09 07:54:10;;;;;;;0.20;0.20;;;;;;;1.79;87.18;100325.50;5019029;28;20042;-73
2021/12/09 07:56:36;;;;;;;0.20;0.20;;;;;;;1.81;86.50;100326.47;5018776;28;20025;-71
2021/12/09 07:59:01;;;;;;;0.20;0.20;;;;;;;1.84;86.64;100338.66;5019063;28;20036;-72
2021/12/09 08:01:26;;;;;;;0.20;0.20;;;;;;;1.85;86.46;100336.16;5018955;28;20037;-72
2021/12/09 08:03:52;;;;;;;0.27;0.27;;;;;;;1.90;86.63;100339.00;5019428;28;20030;-73
2021/12/09 08:06:18;;;;;;;0.20;0.20;;;;;;;1.94;86.02;100340.06;5019045;28;20037;-72
2021/12/09 08:08:43;;;;;;;0.10;0.10;;;;;;;2.01;86.28;100349.94;5018796;28;20080;-73
2021/12/09 08:11:09;;;;;;;0.20;0.20;;;;;;;2.03;86.23;100350.91;5017286;28;20033;-73
2021/12/09 08:13:34;;;;;;;3.93;0.90;;;;;;;2.05;86.04;100357.94;5018794;28;20022;-75
2021/12/09 08:16:00;;;;;;;0.20;0.20;;;;;;;2.08;86.34;100359.81;5017944;28;20028;-73
2021/12/09 08:18:27;;;;;;;0.20;0.20;;;;;;;2.10;86.07;100355.59;5018493;28;20411;-71
2021/12/09 08:21:00;;;;;;;0.20;0.20;;;;;;;2.18;86.03;100356.03;5017954;28;20372;-71
2021/12/09 08:23:26;;;;;;;0.20;0.20;;;;;;;2.21;85.97;100353.59;5017810;28;20411;-72
2021/12/09 08:25:53;;;;;;;0.10;0.10;;;;;;;2.32;85.97;100352.47;5000862;28;20312;-70
2021/12/09 08:28:19;;;;;;;0.23;0.23;;;;;;;2.38;85.64;100351.03;5018462;28;20098;-73
2021/12/09 08:30:44;;;;;;;0.20;0.20;;;;;;;2.43;85.34;100350.47;5018344;28;20276;-73
2021/12/09 08:33:10;;;;;;;0.10;0.10;;;;;;;2.43;85.33;100353.06;5017410;28;20030;-73
2021/12/09 08:35:37;;;;;;;0.20;0.20;;;;;;;2.45;85.17;100350.56;5018337;28;20296;-73
2021/12/09 08:38:04;;;;;;;0.20;0.20;;;;;;;2.45;85.26;100364.38;5018097;28;20099;-72
2021/12/09 08:40:29;;;;;;;0.50;0.50;;;;;;;2.44;85.42;100357.41;5017438;28;20289;-72
2021/12/09 08:42:55;;;;;;;0.20;0.20;;;;;;;2.53;85.31;100358.72;5008215;28;20296;-72
2021/12/09 08:45:21;;;;;;;0.10;0.10;;;;;;;2.56;84.86;100358.91;5018136;28;20035;-73
2021/12/09 08:47:47;;;;;;;0.30;0.30;;;;;;;2.54;84.93;100358.81;5016709;28;20046;-73
2021/12/09 08:50:16;;;;;;;0.20;0.20;;;;;;;2.61;85.31;100360.91;5018277;28;20280;-72
2021/12/09 08:52:42;;;;;;;0.20;0.20;;;;;;;2.61;84.79;100366.09;5017245;28;20663;-73
2021/12/09 08:55:08;;;;;;;0.20;0.20;;;;;;;2.61;85.17;100366.09;5018305;28;20280;-72
2021/12/09 08:57:34;;;;;;;0.30;0.30;;;;;;;2.63;85.17;100370.44;5017394;28;20076;-72
2021/12/09 08:59:59;;;;;;;0.30;0.30;;;;;;;2.65;85.44;100367.13;5033509;28;20527;-73
2021/12/09 09:02:26;;;;;;;0.30;0.30;;;;;;;2.73;84.92;100368.44;5017412;28;20281;-70
2021/12/09 09:04:52;;;;;;;0.20;0.20;;;;;;;2.79;84.84;100374.75;5017522;28;20112;-73
2021/12/09 09:07:17;;;;;;;0.20;0.20;;;;;;;2.80;84.67;100369.63;5017744;28;20619;-71
2021/12/09 09:09:43;;;;;;;0.20;0.20;;;;;;;2.81;84.88;100363.63;5017266;28;20388;-72
2021/12/09 09:12:11;;;;;;;0.20;0.20;;;;;;;2.92;84.36;100368.50;5017535;28;20026;-72
2021/12/09 09:14:37;;;;;;;0.20;0.20;;;;;;;2.92;84.62;100364.19;5017103;28;20100;-71
2021/12/09 09:17:03;;;;;;;0.13;0.13;;;;;;;2.92;84.61;100377.13;5017098;28;20285;-72
2021/12/09 09:19:29;;;;;;;0.10;0.10;;;;;;;2.99;84.49;100376.66;5016948;28;20273;-71
2021/12/09 09:21:54;;;;;;;0.20;0.20;;;;;;;2.98;84.45;100366.22;5017429;28;20080;-71
2021/12/09 09:24:19;;;;;;;0.20;0.20;;;;;;;3.01;84.71;100371.56;5017845;28;20292;-72
2021/12/09 09:26:45;;;;;;;0.20;0.20;;;;;;;3.02;84.86;100371.66;5016904;28;20032;-71
2021/12/09 09:29:11;;;;;;;0.23;0.23;;;;;;;3.02;84.92;100363.00;5017690;28;20412;-71
2021/12/09 09:31:37;;;;;;;0.20;0.20;;;;;;;3.09;84.49;100365.09;5016320;28;20352;-71
2021/12/09 09:34:03;;;;;;;0.30;0.30;;;;;;;3.13;84.67;100372.16;5017182;28;20025;-73
2021/12/09 09:36:29;;;;;;;0.30;0.30;;;;;;;3.18;84.67;100380.19;5016974;28;20030;-72
2021/12/09 09:39:00;;;;;;;0.17;0.17;;;;;;;3.30;84.33;100379.91;5017485;28;20045;-72
2021/12/09 09:41:32;;;;;;;0.20;0.20;;;;;;;3.32;84.28;100380.88;5016269;28;20709;-72
2021/12/09 09:44:08;;;;;;;0.20;0.20;;;;;;;3.32;84.46;100380.88;5017581;28;20284;-72
2021/12/09 09:46:34;;;;;;;0.30;0.30;;;;;;;3.36;84.46;100382.81;5017079;28;20566;-68
2021/12/09 09:49:01;;;;;;;0.20;0.20;;;;;;;3.39;84.10;100380.38;5017389;28;20046;-72
2021/12/09 09:51:28;;;;;;;0.20;0.20;;;;;;;3.43;84.09;100379.72;5017103;28;20036;-73
2021/12/09 09:53:53;;;;;;;0.20;0.20;;;;;;;3.46;83.94;100372.91;5017514;28;20327;-72
2021/12/09 09:56:22;;;;;;;0.20;0.20;;;;;;;3.53;84.23;100370.72;5015770;28;20292;-72
2021/12/09 09:58:54;;;;;;;0.20;0.20;;;;;;;3.57;83.67;100375.22;5016674;28;20037;-72
2021/12/09 10:01:21;;;;;;;0.20;0.20;;;;;;;3.57;83.12;100376.94;5017404;28;20105;-73
2021/12/09 10:03:47;;;;;;;0.30;0.30;;;;;;;3.55;83.71;100381.16;5017118;28;20045;-72
2021/12/09 10:06:15;;;;;;;0.57;0.37;;;;;;;3.53;84.09;100381.06;5017317;28;20592;-74
2021/12/09 10:08:41;;;;;;;0.20;0.20;;;;;;;3.59;84.32;100382.19;5016003;28;20072;-73
2021/12/09 10:11:07;;;;;;;0.20;0.20;;;;;;;3.65;84.16;100387.66;5014458;28;20400;-72
2021/12/09 10:13:37;;;;;;;0.20;0.20;;;;;;;3.69;83.88;100377.50;5013872;28;20025;-73
2021/12/09 10:16:05;;;;;;;0.20;0.20;;;;;;;3.74;83.57;100388.09;5016889;28;20058;-70
2021/12/09 10:18:42;;;;;;;0.27;0.27;;;;;;;3.75;83.20;100392.50;5016866;28;20022;-72
2021/12/09 10:21:09;;;;;;;0.10;0.10;;;;;;;3.69;83.89;100390.47;5017294;28;20407;-71
2021/12/09 10:23:38;;;;;;;0.10;0.10;;;;;;;3.70;84.11;100383.59;5016491;28;20393;-73
2021/12/09 10:26:09;;;;;;;0.20;0.20;;;;;;;3.74;83.89;100384.63;5016574;28;20026;-71
2021/12/09 10:28:36;;;;;;;0.23;0.23;;;;;;;3.75;84.17;100381.22;5016267;28;20058;-72
2021/12/09 10:31:10;;;;;;;0.53;0.53;;;;;;;3.76;84.58;100378.72;5016826;28;20029;-71
2021/12/09 10:33:59;;;;;;;0.20;0.20;;;;;;;3.95;83.96;100366.66;5016654;28;20075;-70
2021/12/09 10:36:38;;;;;;;0.20;0.20;;;;;;;4.12;83.89;100355.38;5016427;28;20022;-71
2021/12/09 10:39:26;;;;;;;0.20;0.20;;;;;;;4.28;83.03;100357.81;5016757;28;20037;-73
2021/12/09 10:41:52;;;;;;;0.20;0.20;;;;;;;4.29;82.50;100368.22;5016076;28;20307;-74
2021/12/09 10:44:29;;;;;;;0.17;0.17;;;;;;;4.25;82.96;100376.69;5015966;28;20038;-73
2021/12/09 10:47:07;;;;;;;0.20;0.20;;;;;;;4.21;83.33;100372.16;5016638;28;20380;-70
2021/12/09 10:49:40;;;;;;;0.20;0.20;;;;;;;4.25;83.50;100366.31;5016495;28;20088;-72
2021/12/09 10:52:36;;;;;;;0.30;0.30;;;;;;;4.28;83.03;100360.41;5016667;28;20030;-72
2021/12/09 10:55:07;;;;;;;0.10;0.10;;;;;;;4.35;83.85;100363.31;5016070;28;20384;-73
2021/12/09 10:57:32;;;;;;;0.17;0.17;;;;;;;4.32;83.24;100367.47;5017721;28;20376;-72
2021/12/09 11:00:14;;;;;;;0.50;0.50;;;;;;;4.26;83.21;100360.31;5019685;28;20077;-71
2021/12/09 11:03:05;;;;;;;0.23;0.23;;;;;;;4.24;83.78;100361.97;5019614;28;20033;-76
2021/12/09 11:05:33;;;;;;;0.30;0.30;;;;;;;4.26;83.20;100353.41;5019688;28;20071;-72
2021/12/09 11:08:21;;;;;;;0.20;0.20;;;;;;;4.32;83.80;100358.00;5019936;28;20385;-68
2021/12/09 11:10:49;;;;;;;0.23;0.23;;;;;;;4.42;83.23;100359.28;5019109;28;20269;-71
2021/12/09 11:13:17;;;;;;;0.20;0.20;;;;;;;4.48;82.84;100361.31;5018496;28;20044;-72
2021/12/09 11:15:56;;;;;;;0.20;0.20;;;;;;;4.50;83.28;100364.84;5015781;28;20026;-70
2021/12/09 11:18:36;;;;;;;0.50;0.50;;;;;;;4.48;82.92;100362.16;5019049;28;20380;-72
2021/12/09 11:21:24;;;;;;;0.40;0.40;;;;;;;4.40;83.01;100364.44;5012825;28;20029;-71
2021/12/09 11:23:54;;;;;;;0.20;0.20;;;;;;;4.33;82.87;100359.78;4999916;28;20293;-72
2021/12/09 11:26:33;;;;;;;0.20;0.20;;;;;;;4.24;83.36;100364.53;5004301;28;20033;-72
2021/12/09 11:29:11;;;;;;;0.20;0.20;;;;;;;4.23;83.18;100357.59;5011402;28;20129;-71
2021/12/09 11:31:55;;;;;;;0.30;0.30;;;;;;;4.15;83.45;100357.22;4999088;28;20069;-70
2021/12/09 11:34:24;;;;;;;0.30;0.30;;;;;;;4.17;83.55;100352.13;4999487;28;20036;-71
2021/12/09 11:37:03;;;;;;;0.20;0.20;;;;;;;4.11;84.14;100350.13;4998999;28;20045;-72